sensor_id;sensor_type;location;lat;lon;timestamp;P1;durP1;ratioP1;P2;durP2;ratioP2
78148;SDS011;67396;42.664;23.382;2023-04-09T00:02:11;21.52;;;11.43;;
78148;SDS011;67396;42.664;23.382;2023-04-09T00:04:37;20.23;;;11.63;;
78148;SDS011;67396;42.664;23.382;2023-04-09T00:07:02;19.20;;;11.77;;
78148;SDS011;67396;42.664;23.382;2023-04-09T00:09:27;19.60;;;10.18;;
78148;SDS011;67396;42.664;23.382;2023-04-09T00:11:53;19.10;;;11.48;;
78148;SDS011;67396;42.664;23.382;2023-04-09T00:14:18;17.95;;;10.40;;
78148;SDS011;67396;42.664;23.382;2023-04-09T00:16:44;18.35;;;11.25;;
78148;SDS011;67396;42.664;23.382;2023-04-09T00:19:09;19.52;;;11.32;;
78148;SDS011;67396;42.664;23.382;2023-04-09T00:21:36;19.73;;;10.25;;
78148;SDS011;67396;42.664;23.382;2023-04-09T00:24:02;22.40;;;11.10;;
78148;SDS011;67396;42.664;23.382;2023-04-09T00:26:27;19.17;;;10.52;;
78148;SDS011;67396;42.664;23.382;2023-04-09T00:28:53;17.95;;;9.93;;
78148;SDS011;67396;42.664;23.382;2023-04-09T00:31:19;18.75;;;9.60;;
78148;SDS011;67396;42.664;23.382;2023-04-09T00:33:44;15.18;;;9.48;;
78148;SDS011;67396;42.664;23.382;2023-04-09T00:36:10;17.08;;;9.98;;
78148;SDS011;67396;42.664;23.382;2023-04-09T00:38:35;16.88;;;10.93;;
78148;SDS011;67396;42.664;23.382;2023-04-09T00:41:00;16.23;;;9.55;;
78148;SDS011;67396;42.664;23.382;2023-04-09T00:43:26;17.85;;;11.13;;
78148;SDS011;67396;42.664;23.382;2023-04-09T00:45:51;16.55;;;10.25;;
78148;SDS011;67396;42.664;23.382;2023-04-09T00:48:16;20.65;;;10.57;;
78148;SDS011;67396;42.664;23.382;2023-04-09T00:50:42;18.63;;;10.52;;
78148;SDS011;67396;42.664;23.382;2023-04-09T00:53:08;14.35;;;7.90;;
78148;SDS011;67396;42.664;23.382;2023-04-09T00:55:35;15.88;;;9.93;;
78148;SDS011;67396;42.664;23.382;2023-04-09T00:58:00;20.55;;;11.32;;
78148;SDS011;67396;42.664;23.382;2023-04-09T01:00:26;16.20;;;10.23;;
78148;SDS011;67396;42.664;23.382;2023-04-09T01:02:52;17.90;;;10.68;;
78148;SDS011;67396;42.664;23.382;2023-04-09T01:05:20;18.50;;;11.48;;
78148;SDS011;67396;42.664;23.382;2023-04-09T01:11:05;23.38;;;11.77;;
78148;SDS011;67396;42.664;23.382;2023-04-09T01:16:36;17.73;;;10.20;;
78148;SDS011;67396;42.664;23.382;2023-04-09T01:19:08;21.33;;;11.32;;
78148;SDS011;67396;42.664;23.382;2023-04-09T01:21:41;19.40;;;10.88;;
78148;SDS011;67396;42.664;23.382;2023-04-09T01:29:31;19.00;;;9.93;;
78148;SDS011;67396;42.664;23.382;2023-04-09T01:32:03;17.30;;;10.30;;
78148;SDS011;67396;42.664;23.382;2023-04-09T01:34:31;21.70;;;11.25;;
78148;SDS011;67396;42.664;23.382;2023-04-09T01:36:58;18.33;;;10.15;;
78148;SDS011;67396;42.664;23.382;2023-04-09T01:39:26;17.58;;;10.32;;
78148;SDS011;67396;42.664;23.382;2023-04-09T01:41:53;15.85;;;9.32;;
78148;SDS011;67396;42.664;23.382;2023-04-09T01:44:20;16.85;;;9.70;;
78148;SDS011;67396;42.664;23.382;2023-04-09T01:46:47;16.58;;;10.77;;
78148;SDS011;67396;42.664;23.382;2023-04-09T01:49:13;16.17;;;9.75;;
78148;SDS011;67396;42.664;23.382;2023-04-09T01:51:39;15.30;;;8.95;;
78148;SDS011;67396;42.664;23.382;2023-04-09T01:54:05;16.98;;;9.00;;
78148;SDS011;67396;42.664;23.382;2023-04-09T01:59:25;16.83;;;9.63;;
78148;SDS011;67396;42.664;23.382;2023-04-09T02:01:55;17.77;;;9.82;;
78148;SDS011;67396;42.664;23.382;2023-04-09T02:04:36;18.50;;;10.52;;
78148;SDS011;67396;42.664;23.382;2023-04-09T02:07:09;19.40;;;10.07;;
78148;SDS011;67396;42.664;23.382;2023-04-09T02:09:42;17.65;;;10.25;;
78148;SDS011;67396;42.664;23.382;2023-04-09T02:12:13;18.75;;;9.82;;
78148;SDS011;67396;42.664;23.382;2023-04-09T02:14:41;17.80;;;9.88;;
78148;SDS011;67396;42.664;23.382;2023-04-09T02:17:11;17.33;;;9.23;;
78148;SDS011;67396;42.664;23.382;2023-04-09T02:19:39;16.70;;;9.70;;
78148;SDS011;67396;42.664;23.382;2023-04-09T02:22:08;21.65;;;10.93;;
78148;SDS011;67396;42.664;23.382;2023-04-09T02:24:35;18.27;;;10.75;;
78148;SDS011;67396;42.664;23.382;2023-04-09T02:27:01;16.95;;;11.07;;
78148;SDS011;67396;42.664;23.382;2023-04-09T02:29:26;19.17;;;10.88;;
78148;SDS011;67396;42.664;23.382;2023-04-09T02:31:52;19.52;;;9.90;;
78148;SDS011;67396;42.664;23.382;2023-04-09T02:34:18;24.60;;;11.77;;
78148;SDS011;67396;42.664;23.382;2023-04-09T02:36:44;18.45;;;11.32;;
78148;SDS011;67396;42.664;23.382;2023-04-09T02:39:09;21.73;;;10.80;;
78148;SDS011;67396;42.664;23.382;2023-04-09T02:41:35;19.67;;;10.25;;
78148;SDS011;67396;42.664;23.382;2023-04-09T02:44:00;19.92;;;11.15;;
78148;SDS011;67396;42.664;23.382;2023-04-09T02:46:25;20.88;;;11.25;;
78148;SDS011;67396;42.664;23.382;2023-04-09T02:48:51;21.05;;;10.52;;
78148;SDS011;67396;42.664;23.382;2023-04-09T02:51:16;21.45;;;11.00;;
78148;SDS011;67396;42.664;23.382;2023-04-09T02:53:42;21.10;;;11.25;;
78148;SDS011;67396;42.664;23.382;2023-04-09T02:56:09;22.83;;;11.60;;
78148;SDS011;67396;42.664;23.382;2023-04-09T02:58:35;23.80;;;11.80;;
78148;SDS011;67396;42.664;23.382;2023-04-09T03:01:00;20.27;;;11.50;;
78148;SDS011;67396;42.664;23.382;2023-04-09T03:03:25;20.80;;;12.10;;
78148;SDS011;67396;42.664;23.382;2023-04-09T03:05:51;24.88;;;12.07;;
78148;SDS011;67396;42.664;23.382;2023-04-09T03:08:16;22.65;;;11.65;;
78148;SDS011;67396;42.664;23.382;2023-04-09T03:10:42;21.92;;;11.27;;
78148;SDS011;67396;42.664;23.382;2023-04-09T03:13:07;21.33;;;11.57;;
78148;SDS011;67396;42.664;23.382;2023-04-09T03:15:32;23.55;;;12.73;;
78148;SDS011;67396;42.664;23.382;2023-04-09T03:17:58;23.63;;;13.38;;
78148;SDS011;67396;42.664;23.382;2023-04-09T03:20:23;28.38;;;13.57;;
78148;SDS011;67396;42.664;23.382;2023-04-09T03:22:48;22.77;;;11.63;;
78148;SDS011;67396;42.664;23.382;2023-04-09T03:25:14;25.50;;;13.02;;
78148;SDS011;67396;42.664;23.382;2023-04-09T03:27:39;26.55;;;12.48;;
78148;SDS011;67396;42.664;23.382;2023-04-09T03:30:05;25.88;;;14.57;;
78148;SDS011;67396;42.664;23.382;2023-04-09T03:32:31;29.35;;;14.10;;
78148;SDS011;67396;42.664;23.382;2023-04-09T03:34:56;24.55;;;13.98;;
78148;SDS011;67396;42.664;23.382;2023-04-09T03:37:21;25.30;;;13.65;;
78148;SDS011;67396;42.664;23.382;2023-04-09T03:39:47;26.25;;;13.70;;
78148;SDS011;67396;42.664;23.382;2023-04-09T03:42:12;25.70;;;13.70;;
78148;SDS011;67396;42.664;23.382;2023-04-09T03:44:37;25.55;;;13.50;;
78148;SDS011;67396;42.664;23.382;2023-04-09T03:47:03;26.00;;;12.80;;
78148;SDS011;67396;42.664;23.382;2023-04-09T03:49:28;29.90;;;16.08;;
78148;SDS011;67396;42.664;23.382;2023-04-09T03:51:54;32.03;;;15.77;;
78148;SDS011;67396;42.664;23.382;2023-04-09T03:54:19;31.25;;;16.20;;
78148;SDS011;67396;42.664;23.382;2023-04-09T03:56:45;35.03;;;15.35;;
78148;SDS011;67396;42.664;23.382;2023-04-09T03:59:10;35.10;;;16.42;;
78148;SDS011;67396;42.664;23.382;2023-04-09T04:01:36;30.80;;;15.32;;
78148;SDS011;67396;42.664;23.382;2023-04-09T04:04:01;36.10;;;16.50;;
78148;SDS011;67396;42.664;23.382;2023-04-09T04:06:27;32.33;;;15.35;;
78148;SDS011;67396;42.664;23.382;2023-04-09T04:08:52;29.30;;;14.10;;
78148;SDS011;67396;42.664;23.382;2023-04-09T04:11:17;28.52;;;15.00;;
78148;SDS011;67396;42.664;23.382;2023-04-09T04:13:43;27.13;;;14.45;;
78148;SDS011;67396;42.664;23.382;2023-04-09T04:16:08;28.73;;;15.77;;
78148;SDS011;67396;42.664;23.382;2023-04-09T04:18:34;26.73;;;14.73;;
78148;SDS011;67396;42.664;23.382;2023-04-09T04:21:00;32.60;;;16.05;;
78148;SDS011;67396;42.664;23.382;2023-04-09T04:23:25;30.17;;;15.88;;
78148;SDS011;67396;42.664;23.382;2023-04-09T04:25:51;32.60;;;16.15;;
78148;SDS011;67396;42.664;23.382;2023-04-09T04:28:17;29.17;;;15.90;;
78148;SDS011;67396;42.664;23.382;2023-04-09T04:30:42;31.05;;;16.27;;
78148;SDS011;67396;42.664;23.382;2023-04-09T04:33:08;34.72;;;16.17;;
78148;SDS011;67396;42.664;23.382;2023-04-09T04:35:33;28.55;;;14.20;;
78148;SDS011;67396;42.664;23.382;2023-04-09T04:37:59;34.35;;;14.93;;
78148;SDS011;67396;42.664;23.382;2023-04-09T04:40:25;27.63;;;13.93;;
78148;SDS011;67396;42.664;23.382;2023-04-09T04:42:53;31.38;;;15.60;;
78148;SDS011;67396;42.664;23.382;2023-04-09T04:45:19;29.23;;;16.35;;
78148;SDS011;67396;42.664;23.382;2023-04-09T04:47:44;30.23;;;14.48;;
78148;SDS011;67396;42.664;23.382;2023-04-09T04:50:28;28.30;;;14.70;;
78148;SDS011;67396;42.664;23.382;2023-04-09T04:52:58;31.17;;;14.75;;
78148;SDS011;67396;42.664;23.382;2023-04-09T04:55:25;34.78;;;15.13;;
78148;SDS011;67396;42.664;23.382;2023-04-09T04:57:51;31.10;;;16.55;;
78148;SDS011;67396;42.664;23.382;2023-04-09T05:00:16;32.28;;;16.02;;
78148;SDS011;67396;42.664;23.382;2023-04-09T05:02:42;27.98;;;15.68;;
78148;SDS011;67396;42.664;23.382;2023-04-09T05:05:08;33.30;;;16.10;;
78148;SDS011;67396;42.664;23.382;2023-04-09T05:07:34;33.92;;;15.68;;
78148;SDS011;67396;42.664;23.382;2023-04-09T05:09:59;35.47;;;16.25;;
78148;SDS011;67396;42.664;23.382;2023-04-09T05:12:24;34.78;;;16.92;;
78148;SDS011;67396;42.664;23.382;2023-04-09T05:14:50;36.58;;;16.55;;
78148;SDS011;67396;42.664;23.382;2023-04-09T05:17:18;31.58;;;14.90;;
78148;SDS011;67396;42.664;23.382;2023-04-09T05:19:49;41.35;;;16.55;;
78148;SDS011;67396;42.664;23.382;2023-04-09T05:22:15;28.52;;;13.48;;
78148;SDS011;67396;42.664;23.382;2023-04-09T05:24:42;32.25;;;14.95;;
78148;SDS011;67396;42.664;23.382;2023-04-09T05:27:07;26.65;;;13.70;;
78148;SDS011;67396;42.664;23.382;2023-04-09T05:29:35;33.00;;;14.25;;
78148;SDS011;67396;42.664;23.382;2023-04-09T05:32:01;23.15;;;10.30;;
78148;SDS011;67396;42.664;23.382;2023-04-09T05:34:27;31.70;;;14.25;;
78148;SDS011;67396;42.664;23.382;2023-04-09T05:36:52;31.02;;;15.00;;
78148;SDS011;67396;42.664;23.382;2023-04-09T05:39:18;29.73;;;13.52;;
78148;SDS011;67396;42.664;23.382;2023-04-09T05:42:02;27.60;;;12.80;;
78148;SDS011;67396;42.664;23.382;2023-04-09T05:44:27;31.02;;;14.90;;
78148;SDS011;67396;42.664;23.382;2023-04-09T05:46:53;26.08;;;12.55;;
78148;SDS011;67396;42.664;23.382;2023-04-09T05:49:18;27.55;;;12.65;;
78148;SDS011;67396;42.664;23.382;2023-04-09T05:51:44;17.83;;;9.60;;
78148;SDS011;67396;42.664;23.382;2023-04-09T05:54:12;26.95;;;12.27;;
78148;SDS011;67396;42.664;23.382;2023-04-09T05:56:37;21.95;;;10.35;;
78148;SDS011;67396;42.664;23.382;2023-04-09T05:59:03;27.63;;;13.63;;
78148;SDS011;67396;42.664;23.382;2023-04-09T06:01:36;28.85;;;13.13;;
78148;SDS011;67396;42.664;23.382;2023-04-09T06:04:01;28.70;;;12.82;;
78148;SDS011;67396;42.664;23.382;2023-04-09T06:06:27;26.48;;;12.73;;
78148;SDS011;67396;42.664;23.382;2023-04-09T06:08:52;25.15;;;11.30;;
78148;SDS011;67396;42.664;23.382;2023-04-09T06:11:21;28.77;;;12.68;;
78148;SDS011;67396;42.664;23.382;2023-04-09T06:13:51;25.20;;;11.88;;
78148;SDS011;67396;42.664;23.382;2023-04-09T06:16:31;27.88;;;12.77;;
78148;SDS011;67396;42.664;23.382;2023-04-09T06:18:57;19.80;;;10.52;;
78148;SDS011;67396;42.664;23.382;2023-04-09T06:21:22;24.20;;;10.70;;
78148;SDS011;67396;42.664;23.382;2023-04-09T06:23:51;26.95;;;13.10;;
78148;SDS011;67396;42.664;23.382;2023-04-09T06:26:27;26.00;;;13.23;;
78148;SDS011;67396;42.664;23.382;2023-04-09T06:29:01;29.85;;;14.75;;
78148;SDS011;67396;42.664;23.382;2023-04-09T06:31:27;27.58;;;12.85;;
78148;SDS011;67396;42.664;23.382;2023-04-09T06:33:55;33.78;;;15.43;;
78148;SDS011;67396;42.664;23.382;2023-04-09T06:36:21;25.73;;;11.93;;
78148;SDS011;67396;42.664;23.382;2023-04-09T06:38:46;28.13;;;12.13;;
78148;SDS011;67396;42.664;23.382;2023-04-09T06:41:12;20.67;;;10.55;;
78148;SDS011;67396;42.664;23.382;2023-04-09T06:43:38;20.70;;;10.10;;
78148;SDS011;67396;42.664;23.382;2023-04-09T06:46:05;23.55;;;11.73;;
78148;SDS011;67396;42.664;23.382;2023-04-09T06:48:33;21.38;;;11.10;;
78148;SDS011;67396;42.664;23.382;2023-04-09T06:50:59;23.90;;;11.93;;
78148;SDS011;67396;42.664;23.382;2023-04-09T06:53:24;18.42;;;8.40;;
78148;SDS011;67396;42.664;23.382;2023-04-09T06:55:59;19.50;;;9.98;;
78148;SDS011;67396;42.664;23.382;2023-04-09T06:58:27;22.23;;;11.07;;
78148;SDS011;67396;42.664;23.382;2023-04-09T07:01:32;19.90;;;9.52;;
78148;SDS011;67396;42.664;23.382;2023-04-09T07:03:59;18.92;;;8.70;;
78148;SDS011;67396;42.664;23.382;2023-04-09T07:06:25;24.08;;;11.13;;
78148;SDS011;67396;42.664;23.382;2023-04-09T07:08:56;24.73;;;12.20;;
78148;SDS011;67396;42.664;23.382;2023-04-09T07:11:29;17.90;;;9.23;;
78148;SDS011;67396;42.664;23.382;2023-04-09T07:13:57;19.35;;;9.57;;
78148;SDS011;67396;42.664;23.382;2023-04-09T07:16:23;19.15;;;8.30;;
78148;SDS011;67396;42.664;23.382;2023-04-09T07:18:49;18.85;;;9.63;;
78148;SDS011;67396;42.664;23.382;2023-04-09T07:21:15;18.15;;;8.57;;
78148;SDS011;67396;42.664;23.382;2023-04-09T07:23:40;13.63;;;7.25;;
78148;SDS011;67396;42.664;23.382;2023-04-09T07:26:06;18.65;;;9.10;;
78148;SDS011;67396;42.664;23.382;2023-04-09T07:28:52;13.65;;;8.05;;
78148;SDS011;67396;42.664;23.382;2023-04-09T07:31:18;20.63;;;9.75;;
78148;SDS011;67396;42.664;23.382;2023-04-09T07:33:44;20.67;;;9.98;;
78148;SDS011;67396;42.664;23.382;2023-04-09T07:36:10;23.77;;;10.98;;
78148;SDS011;67396;42.664;23.382;2023-04-09T07:38:35;23.63;;;10.90;;
78148;SDS011;67396;42.664;23.382;2023-04-09T07:41:00;19.60;;;9.88;;
78148;SDS011;67396;42.664;23.382;2023-04-09T07:43:26;15.52;;;7.63;;
78148;SDS011;67396;42.664;23.382;2023-04-09T07:45:56;16.85;;;8.13;;
78148;SDS011;67396;42.664;23.382;2023-04-09T07:48:24;18.42;;;8.98;;
78148;SDS011;67396;42.664;23.382;2023-04-09T07:50:52;20.50;;;9.55;;
78148;SDS011;67396;42.664;23.382;2023-04-09T07:53:17;19.65;;;10.00;;
78148;SDS011;67396;42.664;23.382;2023-04-09T07:55:45;16.90;;;9.48;;
78148;SDS011;67396;42.664;23.382;2023-04-09T07:58:13;19.50;;;9.43;;
78148;SDS011;67396;42.664;23.382;2023-04-09T08:00:41;27.10;;;11.90;;
78148;SDS011;67396;42.664;23.382;2023-04-09T08:03:06;16.42;;;9.77;;
78148;SDS011;67396;42.664;23.382;2023-04-09T08:05:42;18.00;;;8.57;;
78148;SDS011;67396;42.664;23.382;2023-04-09T08:08:14;17.15;;;8.90;;
78148;SDS011;67396;42.664;23.382;2023-04-09T08:10:40;19.75;;;9.13;;
78148;SDS011;67396;42.664;23.382;2023-04-09T08:13:08;19.60;;;9.85;;
78148;SDS011;67396;42.664;23.382;2023-04-09T08:15:36;18.08;;;9.10;;
78148;SDS011;67396;42.664;23.382;2023-04-09T08:18:05;19.67;;;9.15;;
78148;SDS011;67396;42.664;23.382;2023-04-09T08:20:31;17.15;;;9.05;;
78148;SDS011;67396;42.664;23.382;2023-04-09T08:22:57;21.77;;;9.82;;
78148;SDS011;67396;42.664;23.382;2023-04-09T08:25:23;21.42;;;10.70;;
78148;SDS011;67396;42.664;23.382;2023-04-09T08:27:48;22.67;;;10.60;;
78148;SDS011;67396;42.664;23.382;2023-04-09T08:30:14;22.30;;;10.30;;
78148;SDS011;67396;42.664;23.382;2023-04-09T08:32:39;18.13;;;8.57;;
78148;SDS011;67396;42.664;23.382;2023-04-09T08:35:05;19.90;;;9.93;;
78148;SDS011;67396;42.664;23.382;2023-04-09T08:37:31;24.38;;;12.10;;
78148;SDS011;67396;42.664;23.382;2023-04-09T08:39:57;22.63;;;10.45;;
78148;SDS011;67396;42.664;23.382;2023-04-09T08:42:22;24.25;;;10.05;;
78148;SDS011;67396;42.664;23.382;2023-04-09T08:44:49;25.35;;;11.98;;
78148;SDS011;67396;42.664;23.382;2023-04-09T08:47:14;13.85;;;6.75;;
78148;SDS011;67396;42.664;23.382;2023-04-09T08:49:40;19.58;;;9.02;;
78148;SDS011;67396;42.664;23.382;2023-04-09T08:52:06;18.67;;;10.32;;
78148;SDS011;67396;42.664;23.382;2023-04-09T08:54:32;26.52;;;11.30;;
78148;SDS011;67396;42.664;23.382;2023-04-09T08:56:57;25.58;;;11.27;;
78148;SDS011;67396;42.664;23.382;2023-04-09T08:59:23;25.45;;;12.75;;
78148;SDS011;67396;42.664;23.382;2023-04-09T09:02:09;26.33;;;12.05;;
78148;SDS011;67396;42.664;23.382;2023-04-09T09:04:44;24.67;;;11.90;;
78148;SDS011;67396;42.664;23.382;2023-04-09T09:07:15;26.48;;;12.55;;
78148;SDS011;67396;42.664;23.382;2023-04-09T09:12:38;25.15;;;11.90;;
78148;SDS011;67396;42.664;23.382;2023-04-09T09:15:15;18.02;;;9.45;;
78148;SDS011;67396;42.664;23.382;2023-04-09T09:17:55;22.30;;;10.52;;
78148;SDS011;67396;42.664;23.382;2023-04-09T09:20:21;21.35;;;11.20;;
78148;SDS011;67396;42.664;23.382;2023-04-09T09:22:51;27.77;;;12.25;;
78148;SDS011;67396;42.664;23.382;2023-04-09T09:25:19;23.65;;;12.48;;
78148;SDS011;67396;42.664;23.382;2023-04-09T09:27:49;27.77;;;12.95;;
78148;SDS011;67396;42.664;23.382;2023-04-09T09:30:20;25.00;;;11.75;;
78148;SDS011;67396;42.664;23.382;2023-04-09T09:32:48;25.05;;;11.15;;
78148;SDS011;67396;42.664;23.382;2023-04-09T09:35:17;26.15;;;11.65;;
78148;SDS011;67396;42.664;23.382;2023-04-09T09:37:42;22.52;;;11.35;;
78148;SDS011;67396;42.664;23.382;2023-04-09T09:40:08;18.42;;;10.02;;
78148;SDS011;67396;42.664;23.382;2023-04-09T09:42:34;20.50;;;11.52;;
78148;SDS011;67396;42.664;23.382;2023-04-09T09:44:59;22.58;;;10.23;;
78148;SDS011;67396;42.664;23.382;2023-04-09T09:47:41;19.02;;;10.65;;
78148;SDS011;67396;42.664;23.382;2023-04-09T09:50:19;22.25;;;10.75;;
78148;SDS011;67396;42.664;23.382;2023-04-09T09:52:49;16.17;;;9.13;;
78148;SDS011;67396;42.664;23.382;2023-04-09T09:55:17;21.33;;;11.05;;
78148;SDS011;67396;42.664;23.382;2023-04-09T09:57:45;18.77;;;10.07;;
78148;SDS011;67396;42.664;23.382;2023-04-09T10:00:13;14.15;;;8.43;;
78148;SDS011;67396;42.664;23.382;2023-04-09T10:02:55;22.60;;;9.73;;
78148;SDS011;67396;42.664;23.382;2023-04-09T10:05:23;20.42;;;10.30;;
78148;SDS011;67396;42.664;23.382;2023-04-09T10:07:54;18.33;;;9.93;;
78148;SDS011;67396;42.664;23.382;2023-04-09T10:10:23;18.63;;;8.68;;
78148;SDS011;67396;42.664;23.382;2023-04-09T10:12:49;16.55;;;9.35;;
78148;SDS011;67396;42.664;23.382;2023-04-09T10:15:17;17.70;;;9.93;;
78148;SDS011;67396;42.664;23.382;2023-04-09T10:17:43;18.42;;;9.88;;
78148;SDS011;67396;42.664;23.382;2023-04-09T10:20:11;19.02;;;10.88;;
78148;SDS011;67396;42.664;23.382;2023-04-09T10:22:42;18.52;;;9.88;;
78148;SDS011;67396;42.664;23.382;2023-04-09T10:25:09;18.52;;;9.48;;
78148;SDS011;67396;42.664;23.382;2023-04-09T10:27:35;16.15;;;8.98;;
78148;SDS011;67396;42.664;23.382;2023-04-09T10:30:01;21.13;;;10.85;;
78148;SDS011;67396;42.664;23.382;2023-04-09T10:32:26;19.88;;;10.32;;
78148;SDS011;67396;42.664;23.382;2023-04-09T10:35:00;18.25;;;9.80;;
78148;SDS011;67396;42.664;23.382;2023-04-09T10:37:28;15.38;;;8.57;;
78148;SDS011;67396;42.664;23.382;2023-04-09T10:39:54;14.48;;;8.30;;
78148;SDS011;67396;42.664;23.382;2023-04-09T10:45:03;14.68;;;8.77;;
78148;SDS011;67396;42.664;23.382;2023-04-09T10:47:35;14.98;;;7.13;;
78148;SDS011;67396;42.664;23.382;2023-04-09T10:50:18;14.13;;;8.32;;
78148;SDS011;67396;42.664;23.382;2023-04-09T10:52:46;14.70;;;8.57;;
78148;SDS011;67396;42.664;23.382;2023-04-09T10:58:04;12.98;;;7.47;;
78148;SDS011;67396;42.664;23.382;2023-04-09T11:00:32;16.85;;;9.27;;
78148;SDS011;67396;42.664;23.382;2023-04-09T11:05:36;15.55;;;8.48;;
78148;SDS011;67396;42.664;23.382;2023-04-09T11:10:35;14.95;;;8.52;;
78148;SDS011;67396;42.664;23.382;2023-04-09T11:13:01;15.85;;;9.43;;
78148;SDS011;67396;42.664;23.382;2023-04-09T11:15:27;19.63;;;8.65;;
78148;SDS011;67396;42.664;23.382;2023-04-09T11:17:53;19.30;;;10.43;;
78148;SDS011;67396;42.664;23.382;2023-04-09T11:20:20;16.02;;;9.15;;
78148;SDS011;67396;42.664;23.382;2023-04-09T11:22:48;19.05;;;9.02;;
78148;SDS011;67396;42.664;23.382;2023-04-09T11:25:19;17.38;;;9.63;;
78148;SDS011;67396;42.664;23.382;2023-04-09T11:27:48;15.90;;;8.80;;
78148;SDS011;67396;42.664;23.382;2023-04-09T11:30:14;16.05;;;8.13;;
78148;SDS011;67396;42.664;23.382;2023-04-09T11:32:40;15.05;;;8.77;;
78148;SDS011;67396;42.664;23.382;2023-04-09T11:35:13;14.88;;;7.80;;
78148;SDS011;67396;42.664;23.382;2023-04-09T11:37:40;14.10;;;8.35;;
78148;SDS011;67396;42.664;23.382;2023-04-09T11:40:08;18.30;;;8.77;;
78148;SDS011;67396;42.664;23.382;2023-04-09T11:42:42;14.13;;;7.57;;
78148;SDS011;67396;42.664;23.382;2023-04-09T11:45:09;13.63;;;8.35;;
78148;SDS011;67396;42.664;23.382;2023-04-09T11:47:38;14.25;;;7.82;;
78148;SDS011;67396;42.664;23.382;2023-04-09T11:50:06;12.15;;;6.80;;
78148;SDS011;67396;42.664;23.382;2023-04-09T11:52:32;16.45;;;6.05;;
78148;SDS011;67396;42.664;23.382;2023-04-09T11:55:00;9.13;;;6.43;;
78148;SDS011;67396;42.664;23.382;2023-04-09T11:57:39;14.50;;;6.38;;
78148;SDS011;67396;42.664;23.382;2023-04-09T12:00:10;8.85;;;5.00;;
78148;SDS011;67396;42.664;23.382;2023-04-09T12:02:41;8.00;;;5.07;;
78148;SDS011;67396;42.664;23.382;2023-04-09T12:05:10;8.95;;;5.88;;
78148;SDS011;67396;42.664;23.382;2023-04-09T12:07:38;8.50;;;6.15;;
78148;SDS011;67396;42.664;23.382;2023-04-09T12:10:04;9.55;;;5.70;;
78148;SDS011;67396;42.664;23.382;2023-04-09T12:12:38;9.55;;;5.60;;
78148;SDS011;67396;42.664;23.382;2023-04-09T12:15:10;9.48;;;5.50;;
78148;SDS011;67396;42.664;23.382;2023-04-09T12:17:36;7.40;;;4.85;;
78148;SDS011;67396;42.664;23.382;2023-04-09T12:20:01;5.85;;;4.03;;
78148;SDS011;67396;42.664;23.382;2023-04-09T12:22:26;9.98;;;5.50;;
78148;SDS011;67396;42.664;23.382;2023-04-09T12:24:55;9.38;;;5.00;;
78148;SDS011;67396;42.664;23.382;2023-04-09T12:27:20;11.07;;;5.57;;
78148;SDS011;67396;42.664;23.382;2023-04-09T12:29:46;8.80;;;5.65;;
78148;SDS011;67396;42.664;23.382;2023-04-09T12:32:11;9.38;;;6.30;;
78148;SDS011;67396;42.664;23.382;2023-04-09T12:34:36;13.15;;;8.05;;
78148;SDS011;67396;42.664;23.382;2023-04-09T12:37:02;12.27;;;6.50;;
78148;SDS011;67396;42.664;23.382;2023-04-09T12:39:28;11.70;;;7.32;;
78148;SDS011;67396;42.664;23.382;2023-04-09T12:41:53;9.15;;;6.22;;
78148;SDS011;67396;42.664;23.382;2023-04-09T12:44:18;12.60;;;7.25;;
78148;SDS011;67396;42.664;23.382;2023-04-09T12:46:44;10.35;;;6.35;;
78148;SDS011;67396;42.664;23.382;2023-04-09T12:49:09;9.25;;;6.38;;
78148;SDS011;67396;42.664;23.382;2023-04-09T12:51:35;10.98;;;6.63;;
78148;SDS011;67396;42.664;23.382;2023-04-09T12:54:00;10.07;;;6.28;;
78148;SDS011;67396;42.664;23.382;2023-04-09T12:56:28;10.88;;;6.75;;
78148;SDS011;67396;42.664;23.382;2023-04-09T12:58:53;9.70;;;6.07;;
78148;SDS011;67396;42.664;23.382;2023-04-09T13:01:18;13.45;;;7.82;;
78148;SDS011;67396;42.664;23.382;2023-04-09T13:03:44;12.20;;;6.72;;
78148;SDS011;67396;42.664;23.382;2023-04-09T13:06:09;14.20;;;7.45;;
78148;SDS011;67396;42.664;23.382;2023-04-09T13:08:35;9.98;;;7.07;;
78148;SDS011;67396;42.664;23.382;2023-04-09T13:11:00;8.93;;;5.50;;
78148;SDS011;67396;42.664;23.382;2023-04-09T13:13:26;12.35;;;6.50;;
78148;SDS011;67396;42.664;23.382;2023-04-09T13:15:52;13.00;;;7.05;;
78148;SDS011;67396;42.664;23.382;2023-04-09T13:18:18;11.38;;;6.13;;
78148;SDS011;67396;42.664;23.382;2023-04-09T13:20:43;12.13;;;6.93;;
78148;SDS011;67396;42.664;23.382;2023-04-09T13:23:09;14.05;;;8.38;;
78148;SDS011;67396;42.664;23.382;2023-04-09T13:25:34;10.82;;;6.65;;
78148;SDS011;67396;42.664;23.382;2023-04-09T13:28:00;10.13;;;6.03;;
78148;SDS011;67396;42.664;23.382;2023-04-09T13:30:25;11.35;;;6.25;;
78148;SDS011;67396;42.664;23.382;2023-04-09T13:32:50;10.77;;;6.05;;
78148;SDS011;67396;42.664;23.382;2023-04-09T13:35:16;7.68;;;5.50;;
78148;SDS011;67396;42.664;23.382;2023-04-09T13:37:43;11.07;;;6.13;;
78148;SDS011;67396;42.664;23.382;2023-04-09T13:40:10;7.93;;;5.43;;
78148;SDS011;67396;42.664;23.382;2023-04-09T13:42:36;11.13;;;6.22;;
78148;SDS011;67396;42.664;23.382;2023-04-09T13:45:02;9.88;;;4.72;;
78148;SDS011;67396;42.664;23.382;2023-04-09T13:47:28;8.40;;;5.03;;
78148;SDS011;67396;42.664;23.382;2023-04-09T13:49:57;9.40;;;5.63;;
78148;SDS011;67396;42.664;23.382;2023-04-09T13:52:25;8.52;;;4.88;;
78148;SDS011;67396;42.664;23.382;2023-04-09T13:54:51;12.52;;;6.80;;
78148;SDS011;67396;42.664;23.382;2023-04-09T13:57:17;12.40;;;6.13;;
78148;SDS011;67396;42.664;23.382;2023-04-09T13:59:43;12.05;;;7.63;;
78148;SDS011;67396;42.664;23.382;2023-04-09T14:02:08;13.00;;;7.53;;
78148;SDS011;67396;42.664;23.382;2023-04-09T14:04:34;13.35;;;7.80;;
78148;SDS011;67396;42.664;23.382;2023-04-09T14:07:00;12.02;;;7.55;;
78148;SDS011;67396;42.664;23.382;2023-04-09T14:09:25;13.43;;;6.78;;
78148;SDS011;67396;42.664;23.382;2023-04-09T14:11:54;12.63;;;7.10;;
78148;SDS011;67396;42.664;23.382;2023-04-09T14:14:20;17.95;;;7.97;;
78148;SDS011;67396;42.664;23.382;2023-04-09T14:16:45;20.42;;;7.15;;
78148;SDS011;67396;42.664;23.382;2023-04-09T14:19:19;13.75;;;7.47;;
78148;SDS011;67396;42.664;23.382;2023-04-09T14:21:45;11.98;;;6.53;;
78148;SDS011;67396;42.664;23.382;2023-04-09T14:24:10;12.57;;;7.97;;
78148;SDS011;67396;42.664;23.382;2023-04-09T14:26:36;16.13;;;7.32;;
78148;SDS011;67396;42.664;23.382;2023-04-09T14:29:05;14.88;;;8.55;;
78148;SDS011;67396;42.664;23.382;2023-04-09T14:31:48;13.70;;;7.80;;
78148;SDS011;67396;42.664;23.382;2023-04-09T14:34:16;14.57;;;8.48;;
78148;SDS011;67396;42.664;23.382;2023-04-09T14:46:22;11.10;;;6.57;;
78148;SDS011;67396;42.664;23.382;2023-04-09T14:53:06;16.25;;;8.95;;
78148;SDS011;67396;42.664;23.382;2023-04-09T15:11:57;13.60;;;7.85;;
78148;SDS011;67396;42.664;23.382;2023-04-09T15:21:45;14.13;;;7.70;;
78148;SDS011;67396;42.664;23.382;2023-04-09T15:31:13;12.45;;;7.15;;